createdAt,value
2023-02-13T00:00:17.982Z,95805.00
2023-02-13T00:02:45.101Z,95803.50
2023-02-13T00:05:12.261Z,95806.16
2023-02-13T00:07:38.819Z,95801.91
2023-02-13T00:10:06.072Z,95810.91
2023-02-13T00:12:32.682Z,95804.09
2023-02-13T00:15:00.284Z,95801.88
2023-02-13T00:17:27.313Z,95799.25
2023-02-13T00:19:54.049Z,95803.75
2023-02-13T00:22:20.883Z,95806.66
2023-02-13T00:24:47.548Z,95809.16
2023-02-13T00:27:14.161Z,95812.72
2023-02-13T00:29:40.856Z,95810.44
2023-02-13T00:32:07.774Z,95808.06
2023-02-13T00:34:34.644Z,95813.50
2023-02-13T00:37:01.211Z,95816.50
2023-02-13T00:39:27.943Z,95809.84
2023-02-13T00:41:54.592Z,95813.84
2023-02-13T00:44:21.212Z,95813.47
2023-02-13T00:46:47.905Z,95820.75
2023-02-13T00:49:14.581Z,95816.91
2023-02-13T00:51:41.208Z,95817.06
2023-02-13T00:54:07.790Z,95821.72
2023-02-13T00:56:34.392Z,95823.72
2023-02-13T00:59:01.050Z,95826.84
2023-02-13T01:01:27.721Z,95836.31
2023-02-13T01:03:54.385Z,95831.28
2023-02-13T01:06:21.016Z,95837.19
2023-02-13T01:08:47.572Z,95828.50
2023-02-13T01:11:14.204Z,95827.56
2023-02-13T01:13:40.908Z,95832.94
2023-02-13T01:16:07.775Z,95829.88
2023-02-13T01:18:34.404Z,95826.53
2023-02-13T01:21:04.038Z,95827.25
2023-02-13T01:23:32.634Z,95825.44
2023-02-13T01:25:59.756Z,95839.66
2023-02-13T01:28:26.896Z,95825.09
2023-02-13T01:30:55.586Z,95835.53
2023-02-13T01:33:24.084Z,95828.94
2023-02-13T01:35:51.340Z,95831.13
2023-02-13T01:38:18.326Z,95837.66
2023-02-13T01:40:50.126Z,95841.84
2023-02-13T01:43:17.018Z,95844.06
2023-02-13T01:45:47.028Z,95848.41
2023-02-13T01:48:18.290Z,95847.56
2023-02-13T01:51:11.746Z,95837.31
2023-02-13T01:53:45.965Z,95839.13
2023-02-13T01:56:24.076Z,95847.34
2023-02-13T01:58:54.473Z,95850.34
2023-02-13T02:01:23.393Z,95851.53
2023-02-13T02:03:59.813Z,95848.94
2023-02-13T02:06:35.928Z,95856.69
2023-02-13T02:09:08.136Z,95847.91
2023-02-13T02:11:41.584Z,95847.88
2023-02-13T02:14:08.640Z,95854.31
2023-02-13T02:16:36.043Z,95846.66
2023-02-13T02:19:05.888Z,95844.78
2023-02-13T02:22:00.883Z,95847.06
2023-02-13T02:24:49.619Z,95840.56
2023-02-13T02:27:51.685Z,95842.16
2023-02-13T02:30:46.049Z,95842.16
2023-02-13T02:33:12.683Z,95834.84
2023-02-13T02:36:14.279Z,95830.88
2023-02-13T02:38:49.837Z,95837.38
2023-02-13T02:41:42.097Z,95840.16
2023-02-13T02:44:36.528Z,95850.28
2023-02-13T02:47:27.609Z,95858.41
2023-02-13T02:50:12.324Z,95861.94
2023-02-13T02:53:09.514Z,95859.13
2023-02-13T02:55:39.944Z,95870.47
2023-02-13T02:58:47.566Z,95867.38
2023-02-13T03:01:36.941Z,95870.13
2023-02-13T03:04:23.418Z,95870.69
2023-02-13T03:06:56.535Z,95861.69
2023-02-13T03:09:50.076Z,95858.44
2023-02-13T03:12:41.472Z,95868.53
2023-02-13T03:15:09.843Z,95869.16
2023-02-13T03:17:55.817Z,95863.81
2023-02-13T03:21:13.570Z,95866.19
2023-02-13T03:24:07.921Z,95867.06
2023-02-13T03:27:02.201Z,95865.19
2023-02-13T03:29:59.159Z,95873.72
2023-02-13T03:32:51.651Z,95866.16
2023-02-13T03:35:58.145Z,95866.88
2023-02-13T03:38:32.630Z,95877.59
2023-02-13T03:41:19.937Z,95874.44
2023-02-13T03:43:49.300Z,95875.28
2023-02-13T03:46:17.832Z,95872.00
2023-02-13T03:49:18.667Z,95865.19
2023-02-13T03:52:03.584Z,95867.44
2023-02-13T03:54:56.153Z,95870.06
2023-02-13T03:57:44.159Z,95873.16
2023-02-13T04:00:13.794Z,95866.94
2023-02-13T04:02:50.275Z,95858.22
2023-02-13T04:05:21.490Z,95851.09
2023-02-13T04:07:49.228Z,95864.44
2023-02-13T04:10:17.281Z,95865.44
2023-02-13T04:12:49.903Z,95874.78
2023-02-13T04:15:21.803Z,95868.69
2023-02-13T04:18:04.556Z,95871.03
2023-02-13T04:20:34.212Z,95881.41
2023-02-13T04:23:08.554Z,95885.75
2023-02-13T04:25:37.822Z,95878.78
2023-02-13T04:28:05.056Z,95878.84
2023-02-13T04:30:31.806Z,95866.47
2023-02-13T04:32:58.759Z,95875.63
2023-02-13T04:35:25.570Z,95871.97
2023-02-13T04:37:52.648Z,95870.34
2023-02-13T04:40:19.372Z,95868.91
2023-02-13T04:42:48.925Z,95868.72
2023-02-13T04:45:16.202Z,95860.66
2023-02-13T04:47:43.515Z,95864.72
2023-02-13T04:50:10.460Z,95858.97
2023-02-13T04:52:37.182Z,95863.72
2023-02-13T04:55:04.122Z,95860.31
2023-02-13T04:57:30.756Z,95868.19
2023-02-13T04:59:57.395Z,95875.84
2023-02-13T05:02:24.069Z,95880.34
2023-02-13T05:04:50.757Z,95881.31
2023-02-13T05:07:17.457Z,95891.34
2023-02-13T05:09:44.057Z,95890.59
2023-02-13T05:12:10.698Z,95893.53
2023-02-13T05:14:37.393Z,95889.13
2023-02-13T05:17:04.003Z,95887.50
2023-02-13T05:19:30.620Z,95896.50
2023-02-13T05:22:16.170Z,95898.56
2023-02-13T05:24:42.807Z,95893.38
2023-02-13T05:27:09.445Z,95893.28
2023-02-13T05:29:36.062Z,95895.50
2023-02-13T05:32:02.826Z,95898.84
2023-02-13T05:34:29.883Z,95901.34
2023-02-13T05:36:56.667Z,95907.09
2023-02-13T05:39:23.462Z,95909.84
2023-02-13T05:41:50.608Z,95911.53
2023-02-13T05:44:17.575Z,95906.41
2023-02-13T05:46:45.051Z,95904.09
2023-02-13T05:49:13.885Z,95908.78
2023-02-13T05:51:40.718Z,95906.56
2023-02-13T05:54:07.291Z,95914.56
2023-02-13T05:56:33.898Z,95919.75
2023-02-13T05:59:00.589Z,95914.66
2023-02-13T06:01:27.217Z,95914.25
2023-02-13T06:03:53.911Z,95926.50
2023-02-13T06:06:21.385Z,95925.94
2023-02-13T06:08:48.186Z,95921.19
2023-02-13T06:11:14.774Z,95925.84
2023-02-13T06:13:41.394Z,95922.00
2023-02-13T06:16:09.674Z,95928.75
2023-02-13T06:18:36.704Z,95930.16
2023-02-13T06:21:03.803Z,95922.25
2023-02-13T06:23:30.459Z,95923.63
2023-02-13T06:25:57.328Z,95934.00
2023-02-13T06:28:23.980Z,95932.16
2023-02-13T06:30:50.824Z,95929.56
2023-02-13T06:33:17.537Z,95942.19
2023-02-13T06:35:44.144Z,95937.63
2023-02-13T06:38:10.766Z,95947.66
2023-02-13T06:40:37.325Z,95944.25
2023-02-13T06:43:04.032Z,95948.81
2023-02-13T06:45:30.726Z,95949.72
2023-02-13T06:47:57.483Z,95948.31
2023-02-13T06:50:24.347Z,95943.31
2023-02-13T06:52:52.398Z,95952.56
2023-02-13T06:55:19.193Z,95947.41
2023-02-13T06:57:46.383Z,95942.31
2023-02-13T07:00:15.015Z,95948.50
2023-02-13T07:02:43.327Z,95943.56
2023-02-13T07:05:11.581Z,95942.16
2023-02-13T07:07:40.513Z,95938.84
2023-02-13T07:10:10.794Z,95947.38
2023-02-13T07:12:37.601Z,95936.53
2023-02-13T07:15:05.339Z,95939.34
2023-02-13T07:17:32.404Z,95941.34
2023-02-13T07:19:59.077Z,95945.59
2023-02-13T07:22:25.731Z,95948.06
2023-02-13T07:24:52.339Z,95952.47
2023-02-13T07:27:19.019Z,95954.19
2023-02-13T07:29:45.568Z,95965.44
2023-02-13T07:32:12.291Z,95959.19
2023-02-13T07:34:41.195Z,95952.44
2023-02-13T07:37:13.168Z,95959.16
2023-02-13T07:39:39.871Z,95958.16
2023-02-13T07:42:06.625Z,95952.56
2023-02-13T07:44:33.510Z,95953.06
2023-02-13T07:47:01.292Z,95948.63
2023-02-13T07:49:28.063Z,95943.00
2023-02-13T07:51:58.052Z,95947.31
2023-02-13T07:54:24.955Z,95949.69
2023-02-13T07:56:51.670Z,95953.00
2023-02-13T07:59:18.330Z,95946.91
2023-02-13T08:01:44.984Z,95953.34
2023-02-13T08:04:11.704Z,95949.41
2023-02-13T08:06:42.209Z,95949.09
2023-02-13T08:09:38.861Z,95946.88
2023-02-13T08:12:08.714Z,95958.09
2023-02-13T08:14:35.518Z,95954.88
2023-02-13T08:17:02.284Z,95954.97
2023-02-13T08:19:29.467Z,95945.38
2023-02-13T08:21:56.515Z,95943.50
2023-02-13T08:24:23.241Z,95946.25
2023-02-13T08:26:49.874Z,95950.00
2023-02-13T08:29:16.851Z,95951.41
2023-02-13T08:31:43.889Z,95945.97
2023-02-13T08:34:10.947Z,95944.16
2023-02-13T08:36:37.639Z,95940.47
2023-02-13T08:39:04.426Z,95954.78
2023-02-13T08:41:31.060Z,95950.00
2023-02-13T08:43:57.712Z,95950.34
2023-02-13T08:46:24.385Z,95939.66
2023-02-13T08:48:51.051Z,95945.75
2023-02-13T08:51:17.641Z,95948.56
2023-02-13T08:53:44.336Z,95949.53
2023-02-13T08:56:11.534Z,95955.66
2023-02-13T08:58:38.578Z,95956.69
2023-02-13T09:01:07.074Z,95952.47
2023-02-13T09:03:34.697Z,95949.19
2023-02-13T09:06:02.531Z,95947.06
2023-02-13T09:08:29.173Z,95949.03
2023-02-13T09:11:01.417Z,95949.44
2023-02-13T09:13:33.661Z,95949.81
2023-02-13T09:16:02.471Z,95951.41
2023-02-13T09:18:29.237Z,95952.75
2023-02-13T09:21:07.149Z,95951.44
2023-02-13T09:23:35.971Z,95942.09
2023-02-13T09:26:04.468Z,95940.78
2023-02-13T09:28:32.997Z,95935.56
2023-02-13T09:30:59.727Z,95936.50
2023-02-13T09:33:26.890Z,95940.19
2023-02-13T09:35:53.471Z,95936.78
2023-02-13T09:38:20.103Z,95925.31
2023-02-13T09:40:56.276Z,95922.34
2023-02-13T09:43:38.485Z,95931.72
2023-02-13T09:46:14.644Z,95923.69
2023-02-13T09:48:45.539Z,95919.44
2023-02-13T09:51:18.349Z,95917.22
2023-02-13T09:53:58.032Z,95915.34
2023-02-13T09:56:49.558Z,95915.00
2023-02-13T09:59:42.163Z,95900.06
2023-02-13T10:02:47.637Z,95899.91
2023-02-13T10:05:32.049Z,95906.88
2023-02-13T10:08:14.445Z,95899.63
2023-02-13T10:10:57.855Z,95894.94
2023-02-13T10:13:47.653Z,95885.78
2023-02-13T10:16:27.390Z,95881.81
2023-02-13T10:19:00.475Z,95886.22
2023-02-13T10:21:34.240Z,95878.31
2023-02-13T10:24:12.631Z,95870.50
2023-02-13T10:26:43.452Z,95868.41
2023-02-13T10:29:33.112Z,95868.94
2023-02-13T10:32:04.210Z,95864.69
2023-02-13T10:34:38.722Z,95854.91
2023-02-13T10:37:13.989Z,95850.41
2023-02-13T10:39:42.184Z,95851.44
2023-02-13T10:42:22.996Z,95840.81
2023-02-13T10:44:58.626Z,95843.50
2023-02-13T10:47:37.496Z,95834.78
2023-02-13T10:50:32.134Z,95835.56
2023-02-13T10:53:08.196Z,95829.19
2023-02-13T10:55:54.492Z,95815.84
2023-02-13T10:58:26.063Z,95816.28
2023-02-13T11:01:40.260Z,95823.75
2023-02-13T11:04:12.778Z,95818.09
2023-02-13T11:06:49.284Z,95811.63
2023-02-13T11:09:15.854Z,95805.28
2023-02-13T11:11:43.949Z,95810.44
2023-02-13T11:14:16.712Z,95804.53
2023-02-13T11:17:18.484Z,95795.72
2023-02-13T11:19:54.181Z,95795.06
2023-02-13T11:22:42.777Z,95791.56
2023-02-13T11:25:26.255Z,95795.69
2023-02-13T11:28:09.233Z,95773.06
2023-02-13T11:30:37.784Z,95767.81
2023-02-13T11:33:17.678Z,95772.75
2023-02-13T11:35:46.601Z,95768.00
2023-02-13T11:38:15.789Z,95756.03
2023-02-13T11:41:05.638Z,95761.50
2023-02-13T11:43:48.537Z,95757.84
2023-02-13T11:46:20.465Z,95746.25
2023-02-13T11:49:21.344Z,95748.84
2023-02-13T11:51:54.180Z,95737.94
2023-02-13T11:54:44.307Z,95730.09
2023-02-13T11:57:19.914Z,95718.66
2023-02-13T11:59:49.687Z,95717.63
2023-02-13T12:02:19.572Z,95713.59
2023-02-13T12:04:47.657Z,95715.59
2023-02-13T12:07:29.487Z,95707.16
2023-02-13T12:10:24.067Z,95706.75
2023-02-13T12:12:55.188Z,95697.97
2023-02-13T12:15:30.574Z,95703.53
2023-02-13T12:18:03.458Z,95693.06
2023-02-13T12:20:40.125Z,95695.22
2023-02-13T12:23:18.768Z,95691.53
2023-02-13T12:26:00.295Z,95693.69
2023-02-13T12:28:42.433Z,95694.63
2023-02-13T12:31:27.965Z,95692.50
2023-02-13T12:34:06.700Z,95689.97
2023-02-13T12:36:39.544Z,95688.00
2023-02-13T12:39:09.591Z,95691.66
2023-02-13T12:41:48.019Z,95687.53
2023-02-13T12:44:43.947Z,95692.59
2023-02-13T12:47:23.936Z,95671.31
2023-02-13T12:50:18.098Z,95668.13
2023-02-13T12:52:50.766Z,95670.34
2023-02-13T12:55:53.951Z,95669.88
2023-02-13T12:58:38.539Z,95661.13
2023-02-13T13:01:17.786Z,95665.78
2023-02-13T13:04:34.954Z,95664.28
2023-02-13T13:07:15.066Z,95669.31
2023-02-13T13:10:04.356Z,95657.88
2023-02-13T13:13:06.449Z,95648.25
2023-02-13T13:15:44.393Z,95652.91
2023-02-13T13:18:22.847Z,95653.88
2023-02-13T13:21:02.071Z,95640.13
2023-02-13T13:23:37.870Z,95651.16
2023-02-13T13:26:23.339Z,95646.38
2023-02-13T13:28:54.696Z,95648.03
2023-02-13T13:31:26.194Z,95628.97
2023-02-13T13:33:56.286Z,95641.72
2023-02-13T13:36:25.435Z,95633.78
2023-02-13T13:38:52.124Z,95632.38
2023-02-13T13:42:02.837Z,95637.66
2023-02-13T13:45:00.885Z,95633.41
2023-02-13T13:47:39.252Z,95638.22
2023-02-13T13:50:17.478Z,95640.97
2023-02-13T13:53:11.913Z,95635.03
2023-02-13T13:55:50.298Z,95632.78
2023-02-13T13:58:46.865Z,95628.19
2023-02-13T14:01:16.562Z,95637.81
2023-02-13T14:03:45.919Z,95624.50
2023-02-13T14:06:15.802Z,95630.91
2023-02-13T14:08:44.308Z,95625.69
2023-02-13T14:11:35.649Z,95630.63
2023-02-13T14:14:03.280Z,95634.53
2023-02-13T14:16:57.845Z,95625.78
2023-02-13T14:19:32.591Z,95619.38
2023-02-13T14:22:20.771Z,95620.00
2023-02-13T14:24:55.876Z,95614.88
2023-02-13T14:27:25.206Z,95605.53
2023-02-13T14:29:52.122Z,95608.41
2023-02-13T14:32:30.877Z,95608.16
2023-02-13T14:35:02.385Z,95602.50
2023-02-13T14:37:40.131Z,95599.44
2023-02-13T14:40:44.077Z,95605.88
2023-02-13T14:43:22.578Z,95603.41
2023-02-13T14:45:55.701Z,95614.41
2023-02-13T14:48:33.609Z,95623.66
2023-02-13T14:51:00.913Z,95614.13
2023-02-13T14:53:34.460Z,95614.97
2023-02-13T14:56:10.978Z,95605.41
2023-02-13T14:58:58.533Z,95597.13
2023-02-13T15:01:34.527Z,95603.69
2023-02-13T15:04:12.971Z,95600.34
2023-02-13T15:06:42.729Z,95599.28
2023-02-13T15:09:39.023Z,95597.78
2023-02-13T15:12:27.808Z,95601.59
2023-02-13T15:14:54.644Z,95603.94
2023-02-13T15:17:30.194Z,95602.88
2023-02-13T15:20:04.965Z,95592.22
2023-02-13T15:22:35.643Z,95608.03
2023-02-13T15:25:03.086Z,95605.22
2023-02-13T15:27:32.627Z,95608.50
2023-02-13T15:30:05.070Z,95621.19
2023-02-13T15:32:37.036Z,95617.69
2023-02-13T15:35:22.528Z,95603.28
2023-02-13T15:37:49.262Z,95610.81
2023-02-13T15:40:22.356Z,95607.56
2023-02-13T15:42:49.251Z,95609.75
2023-02-13T15:45:18.436Z,95612.88
2023-02-13T15:47:46.965Z,95621.25
2023-02-13T15:50:35.987Z,95622.91
2023-02-13T15:53:10.027Z,95622.50
2023-02-13T15:55:38.525Z,95616.44
2023-02-13T15:58:05.592Z,95617.63
2023-02-13T16:00:39.277Z,95614.09
2023-02-13T16:03:12.908Z,95620.06
2023-02-13T16:05:41.552Z,95620.91
2023-02-13T16:08:29.118Z,95622.34
2023-02-13T16:11:17.302Z,95621.13
2023-02-13T16:14:13.867Z,95624.22
2023-02-13T16:16:54.698Z,95627.91
2023-02-13T16:19:44.999Z,95631.06
2023-02-13T16:22:33.282Z,95629.78
2023-02-13T16:25:23.028Z,95637.97
2023-02-13T16:27:52.578Z,95641.72
2023-02-13T16:30:33.123Z,95649.34
2023-02-13T16:33:16.894Z,95649.09
2023-02-13T16:35:50.594Z,95649.81
2023-02-13T16:38:41.094Z,95657.72
2023-02-13T16:41:19.625Z,95650.72
2023-02-13T16:44:03.286Z,95656.63
2023-02-13T16:46:32.896Z,95648.13
2023-02-13T16:48:59.579Z,95650.78
2023-02-13T16:51:43.501Z,95647.56
2023-02-13T16:54:36.308Z,95642.28
2023-02-13T16:57:18.205Z,95653.28
2023-02-13T16:59:47.387Z,95651.59
2023-02-13T17:02:19.871Z,95646.03
2023-02-13T17:04:49.596Z,95638.16
2023-02-13T17:07:27.999Z,95640.84
2023-02-13T17:10:03.453Z,95631.78
2023-02-13T17:12:31.915Z,95635.41
2023-02-13T17:14:59.857Z,95636.75
2023-02-13T17:17:30.418Z,95643.09
2023-02-13T17:19:57.772Z,95650.34
2023-02-13T17:22:30.375Z,95642.63
2023-02-13T17:24:58.578Z,95644.94
2023-02-13T17:27:25.156Z,95640.38
2023-02-13T17:29:52.084Z,95649.28
2023-02-13T17:32:22.282Z,95653.84
2023-02-13T17:34:49.656Z,95649.09
2023-02-13T17:37:27.871Z,95651.50
2023-02-13T17:39:55.601Z,95654.28
2023-02-13T17:42:25.015Z,95639.63
2023-02-13T17:44:53.990Z,95644.94
2023-02-13T17:47:23.225Z,95652.94
2023-02-13T17:49:50.565Z,95640.06
2023-02-13T17:52:24.221Z,95636.69
2023-02-13T17:54:51.479Z,95642.59
2023-02-13T17:57:19.450Z,95643.53
2023-02-13T17:59:47.585Z,95639.56
2023-02-13T18:02:17.585Z,95632.13
2023-02-13T18:04:45.308Z,95624.91
2023-02-13T18:07:13.871Z,95628.47
2023-02-13T18:09:40.850Z,95633.50
2023-02-13T18:12:16.449Z,95623.41
2023-02-13T18:14:43.163Z,95622.94
2023-02-13T18:17:09.970Z,95623.97
2023-02-13T18:19:37.455Z,95616.31
2023-02-13T18:22:05.458Z,95617.34
2023-02-13T18:24:33.089Z,95625.03
2023-02-13T18:27:00.022Z,95623.44
2023-02-13T18:29:26.981Z,95630.59
2023-02-13T18:31:54.532Z,95629.00
2023-02-13T18:34:22.416Z,95624.94
2023-02-13T18:36:49.548Z,95635.06
2023-02-13T18:39:16.798Z,95631.88
2023-02-13T18:41:43.902Z,95625.59
2023-02-13T18:44:17.334Z,95624.25
2023-02-13T18:46:50.198Z,95624.25
2023-02-13T18:49:16.985Z,95621.81
2023-02-13T18:51:44.542Z,95625.59
2023-02-13T18:54:11.536Z,95621.63
2023-02-13T18:56:38.172Z,95627.94
2023-02-13T18:59:05.069Z,95628.22
2023-02-13T19:01:31.795Z,95623.44
2023-02-13T19:03:58.450Z,95634.28
2023-02-13T19:06:26.110Z,95630.25
2023-02-13T19:08:52.777Z,95635.50
2023-02-13T19:11:23.374Z,95636.91
2023-02-13T19:13:55.109Z,95638.53
2023-02-13T19:16:22.128Z,95631.91
2023-02-13T19:18:54.639Z,95634.56
2023-02-13T19:21:24.095Z,95627.56
2023-02-13T19:23:51.690Z,95630.19
2023-02-13T19:26:20.906Z,95634.25
2023-02-13T19:28:48.187Z,95629.22
2023-02-13T19:31:18.779Z,95626.31
2023-02-13T19:33:46.260Z,95637.16
2023-02-13T19:36:15.541Z,95646.44
2023-02-13T19:38:44.985Z,95628.97
2023-02-13T19:41:17.339Z,95628.16
2023-02-13T19:43:50.975Z,95629.44
2023-02-13T19:46:20.503Z,95629.00
2023-02-13T19:48:47.260Z,95628.94
2023-02-13T19:51:16.412Z,95633.75
2023-02-13T19:53:43.375Z,95629.78
2023-02-13T19:56:10.360Z,95634.31
2023-02-13T19:58:38.409Z,95629.53
2023-02-13T20:01:08.186Z,95625.84
2023-02-13T20:03:35.029Z,95621.88
2023-02-13T20:06:12.926Z,95618.06
2023-02-13T20:08:42.563Z,95625.00
2023-02-13T20:11:11.042Z,95619.50
2023-02-13T20:13:38.477Z,95622.13
2023-02-13T20:16:06.618Z,95608.59
2023-02-13T20:18:35.395Z,95611.38
2023-02-13T20:21:09.466Z,95612.22
2023-02-13T20:23:36.166Z,95613.06
2023-02-13T20:26:05.054Z,95615.00
2023-02-13T20:28:31.834Z,95612.88
2023-02-13T20:30:59.167Z,95605.47
2023-02-13T20:33:27.175Z,95592.81
2023-02-13T20:35:53.768Z,95602.06
2023-02-13T20:38:20.354Z,95595.41
2023-02-13T20:40:46.908Z,95585.91
2023-02-13T20:43:13.486Z,95580.03
2023-02-13T20:45:40.105Z,95589.31
2023-02-13T20:48:06.794Z,95582.56
2023-02-13T20:50:33.405Z,95580.91
2023-02-13T20:53:00.052Z,95582.44
2023-02-13T20:55:26.697Z,95583.47
2023-02-13T20:57:53.350Z,95583.75
2023-02-13T21:00:20.252Z,95582.38
2023-02-13T21:02:46.912Z,95583.78
2023-02-13T21:05:13.570Z,95575.06
2023-02-13T21:07:40.253Z,95574.44
2023-02-13T21:10:08.044Z,95569.69
2023-02-13T21:12:35.020Z,95572.38
2023-02-13T21:15:01.862Z,95565.94
2023-02-13T21:17:28.449Z,95565.75
2023-02-13T21:19:55.110Z,95559.38
2023-02-13T21:22:21.721Z,95557.72
2023-02-13T21:24:49.711Z,95560.22
2023-02-13T21:27:16.446Z,95563.72
2023-02-13T21:29:43.071Z,95561.88
2023-02-13T21:32:09.810Z,95566.88
2023-02-13T21:34:36.604Z,95558.38
2023-02-13T21:37:03.334Z,95561.91
2023-02-13T21:39:29.998Z,95567.09
2023-02-13T21:41:56.688Z,95554.88
2023-02-13T21:44:23.513Z,95554.38
2023-02-13T21:46:50.594Z,95557.38
2023-02-13T21:49:18.769Z,95546.78
2023-02-13T21:51:46.042Z,95546.69
2023-02-13T21:54:13.613Z,95541.91
2023-02-13T21:56:42.001Z,95551.19
2023-02-13T21:59:09.200Z,95551.06
2023-02-13T22:01:37.786Z,95542.75
2023-02-13T22:04:07.666Z,95546.84
2023-02-13T22:06:36.638Z,95547.09
2023-02-13T22:09:06.635Z,95527.31
2023-02-13T22:11:34.495Z,95534.38
2023-02-13T22:14:03.645Z,95538.25
2023-02-13T22:16:31.790Z,95535.03
2023-02-13T22:18:59.454Z,95534.69
2023-02-13T22:21:28.720Z,95527.56
2023-02-13T22:23:55.434Z,95525.94
2023-02-13T22:26:27.461Z,95518.16
2023-02-13T22:28:56.021Z,95524.78
2023-02-13T22:31:25.419Z,95521.97
2023-02-13T22:34:02.971Z,95519.22
2023-02-13T22:36:31.697Z,95518.63
2023-02-13T22:38:58.364Z,95518.06
2023-02-13T22:41:26.757Z,95513.84
2023-02-13T22:43:53.713Z,95517.66
2023-02-13T22:46:33.335Z,95512.91
2023-02-13T22:49:00.214Z,95507.66
2023-02-13T22:51:34.230Z,95499.34
2023-02-13T22:54:04.966Z,95512.44
2023-02-13T22:56:33.701Z,95520.94
2023-02-13T22:59:00.515Z,95507.41
2023-02-13T23:01:28.973Z,95504.13
2023-02-13T23:03:56.715Z,95503.88
2023-02-13T23:06:24.830Z,95505.53
2023-02-13T23:08:55.137Z,95490.22
2023-02-13T23:11:43.380Z,95496.50
2023-02-13T23:14:11.157Z,95497.59
2023-02-13T23:16:58.204Z,95496.28
2023-02-13T23:19:25.588Z,95497.22
2023-02-13T23:21:52.289Z,95490.56
2023-02-13T23:24:18.950Z,95495.41
2023-02-13T23:26:45.633Z,95493.78
2023-02-13T23:29:12.208Z,95505.28
2023-02-13T23:31:38.925Z,95499.13
2023-02-13T23:34:05.686Z,95492.09
2023-02-13T23:36:32.374Z,95501.78
2023-02-13T23:38:58.956Z,95506.16
2023-02-13T23:41:25.589Z,95485.94
2023-02-13T23:43:52.135Z,95494.22
2023-02-13T23:46:18.815Z,95497.53
2023-02-13T23:48:46.160Z,95503.72
2023-02-13T23:51:13.093Z,95497.59
2023-02-13T23:53:39.878Z,95493.59
2023-02-13T23:56:10.269Z,95503.63
2023-02-13T23:58:36.835Z,95504.19
